OKTOBER 20, 2018

 

METAR SMJP 200300Z 06005KT 9999 SCT025 25/23 Q1009 NOSIG=